sensor_id;sensor_type;location;lat;lon;timestamp;pressure;altitude;pressure_sealevel;temperature;humidity
46534;BME280;32260;52.008;4.752;2023-05-07T15:27:23;101917.13;;;21.69;64.60
46534;BME280;32260;52.008;4.752;2023-05-07T15:29:49;101924.28;;;21.70;63.80
46534;BME280;32260;52.008;4.752;2023-05-07T15:32:18;101927.50;;;21.59;63.61
46534;BME280;32260;52.008;4.752;2023-05-07T15:34:47;101931.69;;;21.45;63.45
46534;BME280;32260;52.008;4.752;2023-05-07T15:37:16;101934.97;;;21.33;63.86
46534;BME280;32260;52.008;4.752;2023-05-07T15:39:45;101932.00;;;21.20;64.27
46534;BME280;32260;52.008;4.752;2023-05-07T15:42:11;101927.78;;;21.14;64.21
46534;BME280;32260;52.008;4.752;2023-05-07T15:44:37;101927.94;;;21.11;63.72
46534;BME280;32260;52.008;4.752;2023-05-07T15:47:04;101926.19;;;21.10;63.98
46534;BME280;32260;52.008;4.752;2023-05-07T15:49:30;101928.94;;;21.09;63.40
46534;BME280;32260;52.008;4.752;2023-05-07T15:51:56;101928.16;;;21.07;63.33
46534;BME280;32260;52.008;4.752;2023-05-07T15:54:26;101927.19;;;21.08;63.58
46534;BME280;32260;52.008;4.752;2023-05-07T15:56:52;101930.84;;;21.07;63.78
46534;BME280;32260;52.008;4.752;2023-05-07T15:59:22;101931.56;;;21.10;63.53
46534;BME280;32260;52.008;4.752;2023-05-07T16:01:57;101926.34;;;21.07;63.62
46534;BME280;32260;52.008;4.752;2023-05-07T16:04:23;101934.34;;;21.09;63.84
46534;BME280;32260;52.008;4.752;2023-05-07T16:06:50;101927.00;;;21.12;63.89
46534;BME280;32260;52.008;4.752;2023-05-07T16:09:16;101930.25;;;21.19;64.04
46534;BME280;32260;52.008;4.752;2023-05-07T16:11:42;101932.59;;;21.27;64.02
46534;BME280;32260;52.008;4.752;2023-05-07T16:14:13;101937.56;;;21.36;64.01
46534;BME280;32260;52.008;4.752;2023-05-07T16:16:39;101925.56;;;21.42;64.22
46534;BME280;32260;52.008;4.752;2023-05-07T16:19:06;101933.53;;;21.45;63.87
46534;BME280;32260;52.008;4.752;2023-05-07T16:21:41;101921.00;;;21.44;63.67
46534;BME280;32260;52.008;4.752;2023-05-07T16:24:07;101927.63;;;21.37;63.78
46534;BME280;32260;52.008;4.752;2023-05-07T16:26:34;101924.28;;;21.31;63.76
46534;BME280;32260;52.008;4.752;2023-05-07T16:29:03;101929.97;;;21.25;63.71
46534;BME280;32260;52.008;4.752;2023-05-07T16:31:30;101934.72;;;21.20;64.10
46534;BME280;32260;52.008;4.752;2023-05-07T16:33:56;101938.72;;;21.11;64.56
46534;BME280;32260;52.008;4.752;2023-05-07T16:36:22;101938.09;;;21.05;64.11
46534;BME280;32260;52.008;4.752;2023-05-07T16:38:48;101942.06;;;20.97;64.24
46534;BME280;32260;52.008;4.752;2023-05-07T16:41:14;101939.66;;;20.91;64.43
46534;BME280;32260;52.008;4.752;2023-05-07T16:43:40;101938.84;;;20.89;64.39
46534;BME280;32260;52.008;4.752;2023-05-07T16:46:06;101941.59;;;20.88;64.25
46534;BME280;32260;52.008;4.752;2023-05-07T16:48:32;101940.88;;;20.84;64.33
46534;BME280;32260;52.008;4.752;2023-05-07T16:50:59;101939.31;;;20.78;64.38
46534;BME280;32260;52.008;4.752;2023-05-07T16:53:25;101936.03;;;20.72;64.38
46534;BME280;32260;52.008;4.752;2023-05-07T16:55:51;101939.78;;;20.67;64.57
46534;BME280;32260;52.008;4.752;2023-05-07T16:58:21;101929.16;;;20.64;64.67
46534;BME280;32260;52.008;4.752;2023-05-07T17:00:48;101931.91;;;20.63;64.74
46534;BME280;32260;52.008;4.752;2023-05-07T17:03:14;101929.22;;;20.63;65.04
46534;BME280;32260;52.008;4.752;2023-05-07T17:05:40;101920.13;;;20.65;65.04
46534;BME280;32260;52.008;4.752;2023-05-07T17:08:06;101926.25;;;20.69;65.01
46534;BME280;32260;52.008;4.752;2023-05-07T17:10:32;101925.28;;;20.72;65.22
46534;BME280;32260;52.008;4.752;2023-05-07T17:12:59;101929.72;;;20.73;64.98
46534;BME280;32260;52.008;4.752;2023-05-07T17:15:25;101933.19;;;20.75;65.26
46534;BME280;32260;52.008;4.752;2023-05-07T17:17:51;101947.47;;;20.77;65.04
46534;BME280;32260;52.008;4.752;2023-05-07T17:20:17;101943.75;;;20.79;65.30
46534;BME280;32260;52.008;4.752;2023-05-07T17:22:43;101939.28;;;20.80;65.14
46534;BME280;32260;52.008;4.752;2023-05-07T17:25:09;101951.84;;;20.79;64.84
46534;BME280;32260;52.008;4.752;2023-05-07T17:27:35;101947.47;;;20.77;64.91
46534;BME280;32260;52.008;4.752;2023-05-07T17:30:02;101938.56;;;20.75;64.84
46534;BME280;32260;52.008;4.752;2023-05-07T17:32:28;101936.78;;;20.75;64.88
46534;BME280;32260;52.008;4.752;2023-05-07T17:34:55;101938.53;;;20.76;64.77
46534;BME280;32260;52.008;4.752;2023-05-07T17:37:21;101944.78;;;20.77;64.69
46534;BME280;32260;52.008;4.752;2023-05-07T17:39:47;101949.22;;;20.78;64.73
46534;BME280;32260;52.008;4.752;2023-05-07T17:42:14;101949.31;;;20.76;64.76
46534;BME280;32260;52.008;4.752;2023-05-07T17:44:41;101948.41;;;20.76;64.73
46534;BME280;32260;52.008;4.752;2023-05-07T17:47:07;101951.19;;;20.74;64.92
46534;BME280;32260;52.008;4.752;2023-05-07T17:49:33;101960.44;;;20.67;65.12
46534;BME280;32260;52.008;4.752;2023-05-07T17:52:01;101951.63;;;20.63;65.10
46534;BME280;32260;52.008;4.752;2023-05-07T17:54:27;101967.00;;;20.61;65.16
46534;BME280;32260;52.008;4.752;2023-05-07T17:56:55;101969.03;;;20.56;65.28
46534;BME280;32260;52.008;4.752;2023-05-07T17:59:21;101970.22;;;20.49;65.40
46534;BME280;32260;52.008;4.752;2023-05-07T18:01:47;101975.81;;;20.44;65.57
46534;BME280;32260;52.008;4.752;2023-05-07T18:04:13;101985.00;;;20.39;65.57
46534;BME280;32260;52.008;4.752;2023-05-07T18:06:39;101985.28;;;20.32;65.70
46534;BME280;32260;52.008;4.752;2023-05-07T18:09:07;101984.59;;;20.27;65.92
46534;BME280;32260;52.008;4.752;2023-05-07T18:11:33;101986.63;;;20.22;65.78
46534;BME280;32260;52.008;4.752;2023-05-07T18:14:01;101986.75;;;20.19;65.98
46534;BME280;32260;52.008;4.752;2023-05-07T18:16:27;101990.56;;;20.13;66.08
46534;BME280;32260;52.008;4.752;2023-05-07T18:18:54;101995.19;;;20.10;66.17
46534;BME280;32260;52.008;4.752;2023-05-07T18:21:20;101992.66;;;20.07;66.39
46534;BME280;32260;52.008;4.752;2023-05-07T18:23:48;101993.69;;;20.02;66.32
46534;BME280;32260;52.008;4.752;2023-05-07T18:26:14;102001.91;;;19.99;66.50
46534;BME280;32260;52.008;4.752;2023-05-07T18:28:40;101995.72;;;19.97;66.58
46534;BME280;32260;52.008;4.752;2023-05-07T18:31:06;102003.91;;;19.94;66.74
46534;BME280;32260;52.008;4.752;2023-05-07T18:33:33;102004.03;;;19.91;66.59
46534;BME280;32260;52.008;4.752;2023-05-07T18:35:59;101999.66;;;19.88;66.57
46534;BME280;32260;52.008;4.752;2023-05-07T18:38:25;102002.56;;;19.84;66.77
46534;BME280;32260;52.008;4.752;2023-05-07T18:40:52;102011.63;;;19.80;67.04
46534;BME280;32260;52.008;4.752;2023-05-07T18:43:21;102006.38;;;19.77;67.04
46534;BME280;32260;52.008;4.752;2023-05-07T18:45:50;102002.88;;;19.75;67.20
46534;BME280;32260;52.008;4.752;2023-05-07T18:48:16;102006.72;;;19.69;67.16
46534;BME280;32260;52.008;4.752;2023-05-07T18:50:43;102001.50;;;19.64;67.22
46534;BME280;32260;52.008;4.752;2023-05-07T18:53:09;102011.44;;;19.62;67.28
46534;BME280;32260;52.008;4.752;2023-05-07T18:55:36;102007.94;;;19.60;67.65
46534;BME280;32260;52.008;4.752;2023-05-07T18:58:05;102011.50;;;19.61;67.47
46534;BME280;32260;52.008;4.752;2023-05-07T19:00:31;102022.31;;;19.59;67.47
46534;BME280;32260;52.008;4.752;2023-05-07T19:02:58;102016.13;;;19.57;67.50
46534;BME280;32260;52.008;4.752;2023-05-07T19:05:24;102025.09;;;19.56;67.53
46534;BME280;32260;52.008;4.752;2023-05-07T19:07:50;102020.72;;;19.53;67.49
46534;BME280;32260;52.008;4.752;2023-05-07T19:10:17;102012.72;;;19.52;67.60
46534;BME280;32260;52.008;4.752;2023-05-07T19:12:43;102023.59;;;19.49;67.83
46534;BME280;32260;52.008;4.752;2023-05-07T19:15:15;102013.84;;;19.46;67.75
46534;BME280;32260;52.008;4.752;2023-05-07T19:17:41;102013.06;;;19.43;67.89
46534;BME280;32260;52.008;4.752;2023-05-07T19:20:08;102019.50;;;19.38;67.80
46534;BME280;32260;52.008;4.752;2023-05-07T19:22:37;102020.56;;;19.34;67.81
46534;BME280;32260;52.008;4.752;2023-05-07T19:25:04;102020.81;;;19.28;67.90
46534;BME280;32260;52.008;4.752;2023-05-07T19:27:32;102020.97;;;19.23;67.95
46534;BME280;32260;52.008;4.752;2023-05-07T19:30:01;102023.81;;;19.19;68.07
46534;BME280;32260;52.008;4.752;2023-05-07T19:32:28;102023.25;;;19.11;68.12
46534;BME280;32260;52.008;4.752;2023-05-07T19:34:54;102047.59;;;19.06;68.26
46534;BME280;32260;52.008;4.752;2023-05-07T19:37:23;102049.50;;;19.02;68.30
46534;BME280;32260;52.008;4.752;2023-05-07T19:39:53;102051.44;;;18.99;68.45
46534;BME280;32260;52.008;4.752;2023-05-07T19:42:19;102059.53;;;18.97;68.66
46534;BME280;32260;52.008;4.752;2023-05-07T19:44:48;102060.53;;;18.95;68.69
46534;BME280;32260;52.008;4.752;2023-05-07T19:47:17;102066.91;;;18.92;68.76
46534;BME280;32260;52.008;4.752;2023-05-07T19:49:43;102060.72;;;18.88;68.83
46534;BME280;32260;52.008;4.752;2023-05-07T19:52:10;102065.31;;;18.85;68.98
46534;BME280;32260;52.008;4.752;2023-05-07T19:54:36;102077.03;;;18.82;68.98
46534;BME280;32260;52.008;4.752;2023-05-07T19:57:02;102069.06;;;18.81;69.08
46534;BME280;32260;52.008;4.752;2023-05-07T19:59:29;102079.78;;;18.81;69.07
46534;BME280;32260;52.008;4.752;2023-05-07T20:01:58;102081.56;;;18.82;69.32
46534;BME280;32260;52.008;4.752;2023-05-07T20:04:24;102085.97;;;18.83;69.30
46534;BME280;32260;52.008;4.752;2023-05-07T20:06:55;102095.78;;;18.84;69.55
46534;BME280;32260;52.008;4.752;2023-05-07T20:09:22;102087.72;;;18.84;69.37
46534;BME280;32260;52.008;4.752;2023-05-07T20:11:48;102095.69;;;18.87;69.36
46534;BME280;32260;52.008;4.752;2023-05-07T20:14:14;102088.50;;;18.87;69.35
46534;BME280;32260;52.008;4.752;2023-05-07T20:16:40;102091.19;;;18.87;69.38
46534;BME280;32260;52.008;4.752;2023-05-07T20:19:06;102091.25;;;18.86;69.56
46534;BME280;32260;52.008;4.752;2023-05-07T20:21:33;102097.44;;;18.88;69.42
46534;BME280;32260;52.008;4.752;2023-05-07T20:24:02;102087.63;;;18.87;69.56
46534;BME280;32260;52.008;4.752;2023-05-07T20:26:44;102101.88;;;18.90;69.78
46534;BME280;32260;52.008;4.752;2023-05-07T20:29:10;102106.44;;;18.87;69.70
46534;BME280;32260;52.008;4.752;2023-05-07T20:31:37;102104.69;;;18.86;69.51
46534;BME280;32260;52.008;4.752;2023-05-07T20:34:03;102105.59;;;18.85;69.73
46534;BME280;32260;52.008;4.752;2023-05-07T20:36:30;102111.03;;;18.83;69.63
46534;BME280;32260;52.008;4.752;2023-05-07T20:38:56;102114.69;;;18.81;69.47
46534;BME280;32260;52.008;4.752;2023-05-07T20:41:22;102106.72;;;18.78;69.56
46534;BME280;32260;52.008;4.752;2023-05-07T20:43:50;102106.84;;;18.74;69.52
46534;BME280;32260;52.008;4.752;2023-05-07T20:46:16;102098.84;;;18.73;69.71
46534;BME280;32260;52.008;4.752;2023-05-07T20:48:43;102104.25;;;18.71;69.81
46534;BME280;32260;52.008;4.752;2023-05-07T20:51:09;102107.88;;;18.70;69.79
46534;BME280;32260;52.008;4.752;2023-05-07T20:53:38;102100.06;;;18.64;69.70
46534;BME280;32260;52.008;4.752;2023-05-07T20:56:05;102108.25;;;18.59;69.81
46534;BME280;32260;52.008;4.752;2023-05-07T20:58:31;102105.72;;;18.55;69.78
46534;BME280;32260;52.008;4.752;2023-05-07T21:00:57;102113.88;;;18.52;69.96
46534;BME280;32260;52.008;4.752;2023-05-07T21:03:24;102113.13;;;18.47;69.91
46534;BME280;32260;52.008;4.752;2023-05-07T21:05:53;102120.47;;;18.41;69.77
46534;BME280;32260;52.008;4.752;2023-05-07T21:08:21;102117.97;;;18.35;69.93
46534;BME280;32260;52.008;4.752;2023-05-07T21:10:47;102111.03;;;18.30;69.86
46534;BME280;32260;52.008;4.752;2023-05-07T21:13:14;102114.75;;;18.24;69.86
46534;BME280;32260;52.008;4.752;2023-05-07T21:15:41;102122.00;;;18.22;70.25
46534;BME280;32260;52.008;4.752;2023-05-07T21:18:08;102123.91;;;18.18;70.01
46534;BME280;32260;52.008;4.752;2023-05-07T21:20:35;102125.84;;;18.13;69.71
46534;BME280;32260;52.008;4.752;2023-05-07T21:23:02;102126.03;;;18.07;69.83
46534;BME280;32260;52.008;4.752;2023-05-07T21:25:28;102123.56;;;17.99;69.85
46534;BME280;32260;52.008;4.752;2023-05-07T21:27:54;102135.31;;;17.95;69.93
46534;BME280;32260;52.008;4.752;2023-05-07T21:30:21;102139.00;;;17.91;70.20
46534;BME280;32260;52.008;4.752;2023-05-07T21:32:47;102132.97;;;17.83;70.07
46534;BME280;32260;52.008;4.752;2023-05-07T21:35:13;102131.31;;;17.78;70.12
46534;BME280;32260;52.008;4.752;2023-05-07T21:37:39;102137.75;;;17.73;70.04
46534;BME280;32260;52.008;4.752;2023-05-07T21:40:06;102129.81;;;17.68;70.21
46534;BME280;32260;52.008;4.752;2023-05-07T21:42:32;102126.41;;;17.63;70.37
46534;BME280;32260;52.008;4.752;2023-05-07T21:44:59;102132.72;;;17.62;70.76
46534;BME280;32260;52.008;4.752;2023-05-07T21:47:25;102141.69;;;17.59;70.41
46534;BME280;32260;52.008;4.752;2023-05-07T21:49:51;102140.94;;;17.56;70.57
46534;BME280;32260;52.008;4.752;2023-05-07T21:52:17;102144.59;;;17.52;70.50
46534;BME280;32260;52.008;4.752;2023-05-07T21:54:43;102146.47;;;17.48;70.59
46534;BME280;32260;52.008;4.752;2023-05-07T21:57:09;102142.13;;;17.44;70.70
46534;BME280;32260;52.008;4.752;2023-05-07T21:59:36;102137.75;;;17.41;70.39
46534;BME280;32260;52.008;4.752;2023-05-07T22:02:02;102140.50;;;17.38;70.60
46534;BME280;32260;52.008;4.752;2023-05-07T22:04:28;102145.03;;;17.36;70.81
46534;BME280;32260;52.008;4.752;2023-05-07T22:06:55;102139.75;;;17.33;70.56
46534;BME280;32260;52.008;4.752;2023-05-07T22:09:21;102142.44;;;17.33;70.61
46534;BME280;32260;52.008;4.752;2023-05-07T22:11:47;102147.88;;;17.30;70.64
46534;BME280;32260;52.008;4.752;2023-05-07T22:14:13;102139.91;;;17.27;70.77
46534;BME280;32260;52.008;4.752;2023-05-07T22:16:39;102136.31;;;17.28;70.85
46534;BME280;32260;52.008;4.752;2023-05-07T22:19:05;102149.75;;;17.26;71.26
46534;BME280;32260;52.008;4.752;2023-05-07T22:21:31;102144.34;;;17.28;70.93
46534;BME280;32260;52.008;4.752;2023-05-07T22:24:01;102149.66;;;17.31;71.23
46534;BME280;32260;52.008;4.752;2023-05-07T22:26:27;102146.06;;;17.30;71.07
46534;BME280;32260;52.008;4.752;2023-05-07T22:28:53;102151.47;;;17.29;71.01
46534;BME280;32260;52.008;4.752;2023-05-07T22:31:19;102142.66;;;17.25;70.96
46534;BME280;32260;52.008;4.752;2023-05-07T22:33:45;102146.34;;;17.21;70.85
46534;BME280;32260;52.008;4.752;2023-05-07T22:36:11;102145.53;;;17.18;71.16
46534;BME280;32260;52.008;4.752;2023-05-07T22:38:37;102135.84;;;17.13;71.05
46534;BME280;32260;52.008;4.752;2023-05-07T22:41:03;102134.13;;;17.11;70.97
46534;BME280;32260;52.008;4.752;2023-05-07T22:43:29;102129.69;;;17.08;71.12
46534;BME280;32260;52.008;4.752;2023-05-07T22:45:58;102136.91;;;17.06;70.86
46534;BME280;32260;52.008;4.752;2023-05-07T22:48:26;102142.34;;;17.03;71.10
46534;BME280;32260;52.008;4.752;2023-05-07T22:50:52;102131.72;;;17.00;71.09
46534;BME280;32260;52.008;4.752;2023-05-07T22:53:19;102141.63;;;16.96;71.16
46534;BME280;32260;52.008;4.752;2023-05-07T22:55:45;102142.59;;;16.94;70.88
46534;BME280;32260;52.008;4.752;2023-05-07T22:58:11;102145.31;;;16.91;71.18
46534;BME280;32260;52.008;4.752;2023-05-07T23:00:38;102143.59;;;16.88;71.01
46534;BME280;32260;52.008;4.752;2023-05-07T23:03:04;102148.06;;;16.88;71.31
46534;BME280;32260;52.008;4.752;2023-05-07T23:05:30;102149.91;;;16.86;71.23
46534;BME280;32260;52.008;4.752;2023-05-07T23:07:56;102142.88;;;16.81;71.20
46534;BME280;32260;52.008;4.752;2023-05-07T23:10:23;102143.84;;;16.79;71.11
46534;BME280;32260;52.008;4.752;2023-05-07T23:12:49;102143.91;;;16.76;71.03
46534;BME280;32260;52.008;4.752;2023-05-07T23:15:17;102141.25;;;16.74;71.16
46534;BME280;32260;52.008;4.752;2023-05-07T23:17:44;102141.25;;;16.74;71.47
46534;BME280;32260;52.008;4.752;2023-05-07T23:20:11;102143.94;;;16.74;71.44
46534;BME280;32260;52.008;4.752;2023-05-07T23:22:37;102144.03;;;16.71;71.04
46534;BME280;32260;52.008;4.752;2023-05-07T23:25:04;102141.41;;;16.68;71.26
46534;BME280;32260;52.008;4.752;2023-05-07T23:27:30;102146.84;;;16.65;71.07
46534;BME280;32260;52.008;4.752;2023-05-07T23:29:57;102147.78;;;16.64;71.42
46534;BME280;32260;52.008;4.752;2023-05-07T23:32:23;102138.84;;;16.63;71.49
46534;BME280;32260;52.008;4.752;2023-05-07T23:34:50;102146.91;;;16.62;71.25
46534;BME280;32260;52.008;4.752;2023-05-07T23:37:16;102147.00;;;16.59;71.30
46534;BME280;32260;52.008;4.752;2023-05-07T23:39:42;102147.06;;;16.56;71.22
46534;BME280;32260;52.008;4.752;2023-05-07T23:42:08;102150.66;;;16.55;71.45
46534;BME280;32260;52.008;4.752;2023-05-07T23:44:35;102152.41;;;16.56;71.83
46534;BME280;32260;52.008;4.752;2023-05-07T23:47:01;102147.06;;;16.56;71.30
46534;BME280;32260;52.008;4.752;2023-05-07T23:49:27;102151.59;;;16.52;71.59
46534;BME280;32260;52.008;4.752;2023-05-07T23:51:53;102149.06;;;16.47;71.00
46534;BME280;32260;52.008;4.752;2023-05-07T23:54:19;102145.59;;;16.42;71.18
46534;BME280;32260;52.008;4.752;2023-05-07T23:56:45;102144.78;;;16.40;71.27
46534;BME280;32260;52.008;4.752;2023-05-07T23:59:12;102140.38;;;16.36;71.16
